sensor_id;sensor_type;location;lat;lon;timestamp;pressure;altitude;pressure_sealevel;temperature;humidity
62694;BME280;48759;52.544;13.418;2022-10-16T00:02:02;100508.88;;;15.72;100.00
62694;BME280;48759;52.544;13.418;2022-10-16T00:04:29;100501.72;;;15.87;100.00
62694;BME280;48759;52.544;13.418;2022-10-16T00:06:55;100507.56;;;15.74;100.00
62694;BME280;48759;52.544;13.418;2022-10-16T00:09:22;100507.97;;;15.94;100.00
62694;BME280;48759;52.544;13.418;2022-10-16T00:11:48;100515.19;;;15.95;100.00
62694;BME280;48759;52.544;13.418;2022-10-16T00:14:15;100519.13;;;16.11;100.00
62694;BME280;48759;52.544;13.418;2022-10-16T00:16:43;100508.69;;;16.30;100.00
62694;BME280;48759;52.544;13.418;2022-10-16T00:19:11;100519.91;;;16.68;100.00
62694;BME280;48759;52.544;13.418;2022-10-16T00:21:37;100518.66;;;16.59;100.00
62694;BME280;48759;52.544;13.418;2022-10-16T00:24:07;100516.50;;;16.33;100.00
62694;BME280;48759;52.544;13.418;2022-10-16T00:26:35;100509.78;;;16.29;100.00
62694;BME280;48759;52.544;13.418;2022-10-16T00:29:03;100517.19;;;16.40;100.00
62694;BME280;48759;52.544;13.418;2022-10-16T00:31:30;100524.22;;;16.59;100.00
62694;BME280;48759;52.544;13.418;2022-10-16T00:33:58;100533.41;;;16.76;100.00
62694;BME280;48759;52.544;13.418;2022-10-16T00:36:26;100537.56;;;16.62;100.00
62694;BME280;48759;52.544;13.418;2022-10-16T00:38:53;100542.75;;;16.25;100.00
62694;BME280;48759;52.544;13.418;2022-10-16T00:41:21;100533.34;;;16.43;100.00
62694;BME280;48759;52.544;13.418;2022-10-16T00:43:50;100536.63;;;16.40;100.00
62694;BME280;48759;52.544;13.418;2022-10-16T00:46:20;100533.00;;;16.39;100.00
62694;BME280;48759;52.544;13.418;2022-10-16T00:48:50;100528.88;;;16.42;100.00
62694;BME280;48759;52.544;13.418;2022-10-16T00:51:23;100530.38;;;16.04;100.00
62694;BME280;48759;52.544;13.418;2022-10-16T00:53:52;100533.69;;;16.47;100.00
62694;BME280;48759;52.544;13.418;2022-10-16T00:56:19;100530.66;;;16.48;100.00
62694;BME280;48759;52.544;13.418;2022-10-16T00:58:46;100529.69;;;16.26;100.00
62694;BME280;48759;52.544;13.418;2022-10-16T01:01:13;100543.03;;;16.12;100.00
62694;BME280;48759;52.544;13.418;2022-10-16T01:03:40;100548.34;;;16.42;100.00
62694;BME280;48759;52.544;13.418;2022-10-16T01:06:23;100541.66;;;16.26;100.00
62694;BME280;48759;52.544;13.418;2022-10-16T01:09:04;100552.91;;;16.08;100.00
62694;BME280;48759;52.544;13.418;2022-10-16T01:11:39;100542.22;;;16.00;100.00
62694;BME280;48759;52.544;13.418;2022-10-16T01:14:13;100540.22;;;16.24;100.00
62694;BME280;48759;52.544;13.418;2022-10-16T01:16:44;100544.91;;;16.23;100.00
62694;BME280;48759;52.544;13.418;2022-10-16T01:19:16;100546.03;;;15.82;100.00
62694;BME280;48759;52.544;13.418;2022-10-16T01:21:50;100552.91;;;15.80;100.00
62694;BME280;48759;52.544;13.418;2022-10-16T01:24:27;100555.97;;;16.06;100.00
62694;BME280;48759;52.544;13.418;2022-10-16T01:27:06;100553.75;;;16.08;100.00
62694;BME280;48759;52.544;13.418;2022-10-16T01:29:37;100554.25;;;16.17;100.00
62694;BME280;48759;52.544;13.418;2022-10-16T01:32:11;100567.50;;;16.27;100.00
62694;BME280;48759;52.544;13.418;2022-10-16T01:34:44;100558.06;;;16.16;100.00
62694;BME280;48759;52.544;13.418;2022-10-16T01:37:18;100570.88;;;15.77;100.00
62694;BME280;48759;52.544;13.418;2022-10-16T01:39:48;100568.97;;;16.18;100.00
62694;BME280;48759;52.544;13.418;2022-10-16T01:42:21;100571.72;;;15.89;100.00
62694;BME280;48759;52.544;13.418;2022-10-16T01:44:49;100574.03;;;15.81;100.00
62694;BME280;48759;52.544;13.418;2022-10-16T01:47:18;100577.34;;;15.43;100.00
62694;BME280;48759;52.544;13.418;2022-10-16T01:49:48;100575.00;;;15.75;100.00
62694;BME280;48759;52.544;13.418;2022-10-16T01:52:18;100570.44;;;15.57;100.00
62694;BME280;48759;52.544;13.418;2022-10-16T01:54:49;100568.63;;;15.62;100.00
62694;BME280;48759;52.544;13.418;2022-10-16T01:57:21;100562.84;;;15.64;100.00
62694;BME280;48759;52.544;13.418;2022-10-16T01:59:51;100571.53;;;15.56;100.00
62694;BME280;48759;52.544;13.418;2022-10-16T02:02:20;100581.78;;;15.67;100.00
62694;BME280;48759;52.544;13.418;2022-10-16T02:04:53;100587.09;;;15.57;100.00
62694;BME280;48759;52.544;13.418;2022-10-16T02:07:22;100579.09;;;15.60;100.00
62694;BME280;48759;52.544;13.418;2022-10-16T02:09:49;100575.66;;;16.05;100.00
62694;BME280;48759;52.544;13.418;2022-10-16T02:12:22;100586.72;;;16.17;100.00
62694;BME280;48759;52.544;13.418;2022-10-16T02:14:50;100579.34;;;16.11;100.00
62694;BME280;48759;52.544;13.418;2022-10-16T02:17:17;100589.94;;;16.25;100.00
62694;BME280;48759;52.544;13.418;2022-10-16T02:19:46;100597.25;;;15.91;100.00
62694;BME280;48759;52.544;13.418;2022-10-16T02:22:17;100607.38;;;16.21;100.00
62694;BME280;48759;52.544;13.418;2022-10-16T02:24:51;100623.16;;;16.08;100.00
62694;BME280;48759;52.544;13.418;2022-10-16T02:27:26;100617.44;;;15.87;100.00
62694;BME280;48759;52.544;13.418;2022-10-16T02:30:00;100603.41;;;16.05;100.00
62694;BME280;48759;52.544;13.418;2022-10-16T02:32:33;100598.13;;;16.32;100.00
62694;BME280;48759;52.544;13.418;2022-10-16T02:35:02;100604.44;;;16.16;100.00
62694;BME280;48759;52.544;13.418;2022-10-16T02:37:30;100607.00;;;16.17;100.00
62694;BME280;48759;52.544;13.418;2022-10-16T02:39:58;100610.75;;;15.99;100.00
62694;BME280;48759;52.544;13.418;2022-10-16T02:42:31;100619.81;;;16.06;100.00
62694;BME280;48759;52.544;13.418;2022-10-16T02:44:58;100615.84;;;16.02;100.00
62694;BME280;48759;52.544;13.418;2022-10-16T02:47:25;100610.06;;;15.92;100.00
62694;BME280;48759;52.544;13.418;2022-10-16T02:49:52;100612.91;;;16.21;100.00
62694;BME280;48759;52.544;13.418;2022-10-16T02:52:19;100616.78;;;16.20;100.00
62694;BME280;48759;52.544;13.418;2022-10-16T02:54:45;100620.88;;;16.17;100.00
62694;BME280;48759;52.544;13.418;2022-10-16T02:57:11;100621.59;;;16.13;100.00
62694;BME280;48759;52.544;13.418;2022-10-16T03:02:06;100619.66;;;16.25;100.00
62694;BME280;48759;52.544;13.418;2022-10-16T03:04:32;100622.59;;;15.95;100.00
62694;BME280;48759;52.544;13.418;2022-10-16T03:06:59;100624.25;;;16.07;100.00
62694;BME280;48759;52.544;13.418;2022-10-16T03:09:26;100626.50;;;15.71;100.00
62694;BME280;48759;52.544;13.418;2022-10-16T03:11:52;100626.38;;;15.89;100.00
62694;BME280;48759;52.544;13.418;2022-10-16T03:14:19;100629.53;;;15.57;100.00
62694;BME280;48759;52.544;13.418;2022-10-16T03:16:47;100632.66;;;15.61;100.00
62694;BME280;48759;52.544;13.418;2022-10-16T03:19:13;100633.34;;;15.91;100.00
62694;BME280;48759;52.544;13.418;2022-10-16T03:21:40;100632.78;;;15.89;100.00
62694;BME280;48759;52.544;13.418;2022-10-16T03:24:06;100636.91;;;15.75;100.00
62694;BME280;48759;52.544;13.418;2022-10-16T03:26:33;100642.19;;;15.77;100.00
62694;BME280;48759;52.544;13.418;2022-10-16T03:28:59;100638.56;;;15.53;100.00
62694;BME280;48759;52.544;13.418;2022-10-16T03:31:27;100639.91;;;15.62;100.00
62694;BME280;48759;52.544;13.418;2022-10-16T03:33:55;100643.28;;;15.64;100.00
62694;BME280;48759;52.544;13.418;2022-10-16T03:36:22;100646.78;;;15.71;100.00
62694;BME280;48759;52.544;13.418;2022-10-16T03:38:49;100655.84;;;15.43;100.00
62694;BME280;48759;52.544;13.418;2022-10-16T03:41:15;100658.00;;;15.41;100.00
62694;BME280;48759;52.544;13.418;2022-10-16T03:43:42;100663.56;;;15.41;100.00
62694;BME280;48759;52.544;13.418;2022-10-16T03:46:08;100654.16;;;15.42;100.00
62694;BME280;48759;52.544;13.418;2022-10-16T03:48:35;100660.63;;;15.36;100.00
62694;BME280;48759;52.544;13.418;2022-10-16T03:51:03;100670.78;;;15.42;100.00
62694;BME280;48759;52.544;13.418;2022-10-16T03:53:29;100680.75;;;15.31;100.00
62694;BME280;48759;52.544;13.418;2022-10-16T03:55:56;100690.63;;;15.27;100.00
62694;BME280;48759;52.544;13.418;2022-10-16T03:58:23;100685.28;;;15.14;100.00
62694;BME280;48759;52.544;13.418;2022-10-16T04:00:49;100694.06;;;15.53;100.00
62694;BME280;48759;52.544;13.418;2022-10-16T04:03:16;100694.06;;;15.41;100.00
62694;BME280;48759;52.544;13.418;2022-10-16T04:05:44;100688.88;;;15.45;100.00
62694;BME280;48759;52.544;13.418;2022-10-16T04:08:12;100678.13;;;15.60;100.00
62694;BME280;48759;52.544;13.418;2022-10-16T04:10:38;100691.28;;;15.53;100.00
62694;BME280;48759;52.544;13.418;2022-10-16T04:13:04;100688.03;;;15.56;100.00
62694;BME280;48759;52.544;13.418;2022-10-16T04:15:31;100703.47;;;15.52;100.00
62694;BME280;48759;52.544;13.418;2022-10-16T04:17:57;100705.16;;;15.53;100.00
62694;BME280;48759;52.544;13.418;2022-10-16T04:20:24;100704.41;;;15.46;100.00
62694;BME280;48759;52.544;13.418;2022-10-16T04:22:50;100705.03;;;15.59;100.00
62694;BME280;48759;52.544;13.418;2022-10-16T04:25:18;100702.53;;;15.58;100.00
62694;BME280;48759;52.544;13.418;2022-10-16T04:27:45;100701.53;;;15.41;100.00
62694;BME280;48759;52.544;13.418;2022-10-16T04:30:11;100699.09;;;15.44;100.00
62694;BME280;48759;52.544;13.418;2022-10-16T04:32:38;100705.50;;;15.45;100.00
62694;BME280;48759;52.544;13.418;2022-10-16T04:35:05;100674.47;;;15.24;100.00
62694;BME280;48759;52.544;13.418;2022-10-16T04:37:32;100680.75;;;15.31;100.00
62694;BME280;48759;52.544;13.418;2022-10-16T04:39:59;100684.16;;;15.34;100.00
62694;BME280;48759;52.544;13.418;2022-10-16T04:42:26;100684.59;;;15.30;100.00
62694;BME280;48759;52.544;13.418;2022-10-16T04:44:53;100682.78;;;15.24;100.00
62694;BME280;48759;52.544;13.418;2022-10-16T04:47:19;100681.22;;;15.28;100.00
62694;BME280;48759;52.544;13.418;2022-10-16T04:49:46;100677.34;;;15.29;100.00
62694;BME280;48759;52.544;13.418;2022-10-16T04:52:12;100673.16;;;15.27;100.00
62694;BME280;48759;52.544;13.418;2022-10-16T04:54:39;100665.66;;;15.16;100.00
62694;BME280;48759;52.544;13.418;2022-10-16T04:57:05;100673.16;;;15.27;100.00
62694;BME280;48759;52.544;13.418;2022-10-16T04:59:33;100678.53;;;15.10;100.00
62694;BME280;48759;52.544;13.418;2022-10-16T05:02:00;100680.59;;;15.15;100.00
62694;BME280;48759;52.544;13.418;2022-10-16T05:04:26;100680.81;;;15.13;100.00
62694;BME280;48759;52.544;13.418;2022-10-16T05:06:53;100696.03;;;15.11;100.00
62694;BME280;48759;52.544;13.418;2022-10-16T05:09:19;100696.03;;;15.11;100.00
62694;BME280;48759;52.544;13.418;2022-10-16T05:11:45;100704.69;;;15.14;100.00
62694;BME280;48759;52.544;13.418;2022-10-16T05:14:12;100721.94;;;15.16;100.00
62694;BME280;48759;52.544;13.418;2022-10-16T05:16:40;100721.56;;;15.13;100.00
62694;BME280;48759;52.544;13.418;2022-10-16T05:19:07;100723.97;;;15.09;100.00
62694;BME280;48759;52.544;13.418;2022-10-16T05:21:34;100725.66;;;15.10;100.00
62694;BME280;48759;52.544;13.418;2022-10-16T05:24:00;100720.88;;;15.17;100.00
62694;BME280;48759;52.544;13.418;2022-10-16T05:26:27;100708.47;;;15.20;100.00
62694;BME280;48759;52.544;13.418;2022-10-16T05:28:53;100712.78;;;15.16;100.00
62694;BME280;48759;52.544;13.418;2022-10-16T05:31:20;100720.03;;;15.17;100.00
62694;BME280;48759;52.544;13.418;2022-10-16T05:33:48;100711.47;;;15.30;100.00
62694;BME280;48759;52.544;13.418;2022-10-16T05:36:14;100713.63;;;15.28;100.00
62694;BME280;48759;52.544;13.418;2022-10-16T05:38:41;100708.72;;;15.30;100.00
62694;BME280;48759;52.544;13.418;2022-10-16T05:41:07;100717.59;;;15.20;100.00
62694;BME280;48759;52.544;13.418;2022-10-16T05:43:34;100732.66;;;15.13;100.00
62694;BME280;48759;52.544;13.418;2022-10-16T05:46:02;100736.50;;;15.42;100.00
62694;BME280;48759;52.544;13.418;2022-10-16T05:48:29;100737.72;;;15.46;100.00
62694;BME280;48759;52.544;13.418;2022-10-16T05:51:01;100741.81;;;15.55;100.00
62694;BME280;48759;52.544;13.418;2022-10-16T05:53:28;100743.78;;;15.66;100.00
62694;BME280;48759;52.544;13.418;2022-10-16T05:55:56;100740.63;;;15.51;100.00
62694;BME280;48759;52.544;13.418;2022-10-16T05:58:23;100741.94;;;15.48;100.00
62694;BME280;48759;52.544;13.418;2022-10-16T06:00:53;100738.44;;;15.53;100.00
62694;BME280;48759;52.544;13.418;2022-10-16T06:03:21;100738.41;;;16.46;100.00
62694;BME280;48759;52.544;13.418;2022-10-16T06:05:47;100733.28;;;15.91;100.00
62694;BME280;48759;52.544;13.418;2022-10-16T06:08:15;100747.63;;;15.65;100.00
62694;BME280;48759;52.544;13.418;2022-10-16T06:10:42;100748.69;;;15.52;100.00
62694;BME280;48759;52.544;13.418;2022-10-16T06:13:10;100744.72;;;15.60;100.00
62694;BME280;48759;52.544;13.418;2022-10-16T06:15:37;100761.16;;;15.73;100.00
62694;BME280;48759;52.544;13.418;2022-10-16T06:18:04;100762.59;;;15.87;100.00
62694;BME280;48759;52.544;13.418;2022-10-16T06:20:30;100766.81;;;15.78;100.00
62694;BME280;48759;52.544;13.418;2022-10-16T06:22:57;100765.03;;;15.95;100.00
62694;BME280;48759;52.544;13.418;2022-10-16T06:25:25;100762.13;;;15.90;100.00
62694;BME280;48759;52.544;13.418;2022-10-16T06:27:51;100757.53;;;16.07;100.00
62694;BME280;48759;52.544;13.418;2022-10-16T06:30:18;100757.72;;;16.64;100.00
62694;BME280;48759;52.544;13.418;2022-10-16T06:32:44;100763.56;;;16.51;100.00
62694;BME280;48759;52.544;13.418;2022-10-16T06:35:11;100769.63;;;16.13;100.00
62694;BME280;48759;52.544;13.418;2022-10-16T06:37:37;100774.47;;;16.18;100.00
62694;BME280;48759;52.544;13.418;2022-10-16T06:40:05;100772.03;;;16.33;100.00
62694;BME280;48759;52.544;13.418;2022-10-16T06:42:32;100782.66;;;16.13;100.00
62694;BME280;48759;52.544;13.418;2022-10-16T06:44:59;100794.13;;;16.28;100.00
62694;BME280;48759;52.544;13.418;2022-10-16T06:47:27;100793.53;;;16.26;100.00
62694;BME280;48759;52.544;13.418;2022-10-16T06:49:53;100802.78;;;16.55;100.00
62694;BME280;48759;52.544;13.418;2022-10-16T06:52:20;100798.81;;;16.51;100.00
62694;BME280;48759;52.544;13.418;2022-10-16T06:57:14;100805.97;;;16.87;100.00
62694;BME280;48759;52.544;13.418;2022-10-16T06:59:42;100799.97;;;17.18;100.00
62694;BME280;48759;52.544;13.418;2022-10-16T07:02:08;100806.06;;;17.03;100.00
62694;BME280;48759;52.544;13.418;2022-10-16T07:04:35;100809.00;;;16.97;100.00
62694;BME280;48759;52.544;13.418;2022-10-16T07:07:02;100813.53;;;17.14;100.00
62694;BME280;48759;52.544;13.418;2022-10-16T07:09:28;100812.63;;;17.54;100.00
62694;BME280;48759;52.544;13.418;2022-10-16T07:11:55;100824.97;;;17.75;100.00
62694;BME280;48759;52.544;13.418;2022-10-16T07:14:21;100828.69;;;17.97;100.00
62694;BME280;48759;52.544;13.418;2022-10-16T07:16:49;100832.84;;;17.78;100.00
62694;BME280;48759;52.544;13.418;2022-10-16T07:19:15;100841.78;;;18.13;100.00
62694;BME280;48759;52.544;13.418;2022-10-16T07:21:43;100829.38;;;18.04;100.00
62694;BME280;48759;52.544;13.418;2022-10-16T07:24:12;100831.59;;;18.02;100.00
62694;BME280;48759;52.544;13.418;2022-10-16T07:26:39;100824.81;;;17.98;100.00
62694;BME280;48759;52.544;13.418;2022-10-16T07:29:12;100829.66;;;18.03;100.00
62694;BME280;48759;52.544;13.418;2022-10-16T07:31:39;100837.47;;;18.22;100.00
62694;BME280;48759;52.544;13.418;2022-10-16T07:34:07;100841.88;;;18.02;100.00
62694;BME280;48759;52.544;13.418;2022-10-16T07:36:34;100828.19;;;18.17;100.00
62694;BME280;48759;52.544;13.418;2022-10-16T07:39:01;100815.81;;;18.46;100.00
62694;BME280;48759;52.544;13.418;2022-10-16T07:41:28;100826.56;;;18.76;100.00
62694;BME280;48759;52.544;13.418;2022-10-16T07:43:55;100836.59;;;18.39;100.00
62694;BME280;48759;52.544;13.418;2022-10-16T07:46:25;100849.66;;;18.93;100.00
62694;BME280;48759;52.544;13.418;2022-10-16T07:48:52;100850.28;;;18.57;100.00
62694;BME280;48759;52.544;13.418;2022-10-16T07:51:23;100835.56;;;18.45;100.00
62694;BME280;48759;52.544;13.418;2022-10-16T07:53:50;100838.91;;;18.42;100.00
62694;BME280;48759;52.544;13.418;2022-10-16T07:56:18;100836.06;;;18.58;100.00
62694;BME280;48759;52.544;13.418;2022-10-16T07:58:45;100839.25;;;18.12;100.00
62694;BME280;48759;52.544;13.418;2022-10-16T08:01:14;100833.84;;;18.05;100.00
62694;BME280;48759;52.544;13.418;2022-10-16T08:03:41;100836.44;;;18.12;100.00
62694;BME280;48759;52.544;13.418;2022-10-16T08:06:08;100856.31;;;18.15;100.00
62694;BME280;48759;52.544;13.418;2022-10-16T08:08:36;100872.09;;;18.26;100.00
62694;BME280;48759;52.544;13.418;2022-10-16T08:11:03;100872.53;;;18.18;100.00
62694;BME280;48759;52.544;13.418;2022-10-16T08:13:30;100874.75;;;17.88;100.00
62694;BME280;48759;52.544;13.418;2022-10-16T08:15:57;100871.56;;;18.29;100.00
62694;BME280;48759;52.544;13.418;2022-10-16T08:18:24;100877.13;;;18.63;100.00
62694;BME280;48759;52.544;13.418;2022-10-16T08:20:55;100874.78;;;18.21;100.00
62694;BME280;48759;52.544;13.418;2022-10-16T08:23:21;100870.06;;;18.05;100.00
62694;BME280;48759;52.544;13.418;2022-10-16T08:25:49;100864.47;;;18.05;100.00
62694;BME280;48759;52.544;13.418;2022-10-16T08:28:16;100867.75;;;18.35;100.00
62694;BME280;48759;52.544;13.418;2022-10-16T08:30:42;100863.63;;;18.21;100.00
62694;BME280;48759;52.544;13.418;2022-10-16T08:33:09;100866.81;;;18.47;100.00
62694;BME280;48759;52.544;13.418;2022-10-16T08:35:35;100883.22;;;18.60;100.00
62694;BME280;48759;52.544;13.418;2022-10-16T08:38:03;100883.75;;;18.57;100.00
62694;BME280;48759;52.544;13.418;2022-10-16T08:40:31;100883.03;;;18.66;100.00
62694;BME280;48759;52.544;13.418;2022-10-16T08:43:26;100884.22;;;18.37;100.00
62694;BME280;48759;52.544;13.418;2022-10-16T08:46:16;100886.13;;;18.48;100.00
62694;BME280;48759;52.544;13.418;2022-10-16T08:48:48;100886.81;;;18.77;100.00
62694;BME280;48759;52.544;13.418;2022-10-16T08:51:20;100879.91;;;18.80;100.00
62694;BME280;48759;52.544;13.418;2022-10-16T08:53:51;100878.00;;;18.30;100.00
62694;BME280;48759;52.544;13.418;2022-10-16T08:56:19;100881.53;;;18.59;100.00
62694;BME280;48759;52.544;13.418;2022-10-16T08:58:48;100885.66;;;18.06;100.00
62694;BME280;48759;52.544;13.418;2022-10-16T09:01:17;100897.41;;;18.08;100.00
62694;BME280;48759;52.544;13.418;2022-10-16T09:04:40;100891.69;;;18.48;100.00
62694;BME280;48759;52.544;13.418;2022-10-16T09:07:14;100900.75;;;18.77;100.00
62694;BME280;48759;52.544;13.418;2022-10-16T09:09:54;100919.19;;;18.45;100.00
62694;BME280;48759;52.544;13.418;2022-10-16T09:12:27;100908.63;;;18.47;100.00
62694;BME280;48759;52.544;13.418;2022-10-16T09:15:03;100915.81;;;18.09;100.00
62694;BME280;48759;52.544;13.418;2022-10-16T09:17:41;100917.69;;;18.54;100.00
62694;BME280;48759;52.544;13.418;2022-10-16T09:20:22;100918.16;;;18.84;100.00
62694;BME280;48759;52.544;13.418;2022-10-16T09:22:52;100918.34;;;18.78;100.00
62694;BME280;48759;52.544;13.418;2022-10-16T09:25:21;100912.69;;;18.22;100.00
62694;BME280;48759;52.544;13.418;2022-10-16T09:27:52;100911.25;;;18.37;100.00
62694;BME280;48759;52.544;13.418;2022-10-16T09:30:21;100921.38;;;17.92;100.00
62694;BME280;48759;52.544;13.418;2022-10-16T09:32:50;100907.53;;;18.14;100.00
62694;BME280;48759;52.544;13.418;2022-10-16T09:35:20;100908.13;;;18.16;100.00
62694;BME280;48759;52.544;13.418;2022-10-16T09:37:48;100923.78;;;17.89;100.00
62694;BME280;48759;52.544;13.418;2022-10-16T09:40:25;100927.72;;;18.21;100.00
62694;BME280;48759;52.544;13.418;2022-10-16T09:42:57;100921.06;;;18.22;100.00
62694;BME280;48759;52.544;13.418;2022-10-16T09:45:29;100923.97;;;18.83;100.00
62694;BME280;48759;52.544;13.418;2022-10-16T09:47:55;100927.81;;;18.77;100.00
62694;BME280;48759;52.544;13.418;2022-10-16T09:50:24;100929.19;;;18.57;100.00
62694;BME280;48759;52.544;13.418;2022-10-16T09:53:03;100945.72;;;18.30;100.00
62694;BME280;48759;52.544;13.418;2022-10-16T09:55:29;100941.00;;;18.64;100.00
62694;BME280;48759;52.544;13.418;2022-10-16T09:57:56;100944.47;;;18.55;100.00
62694;BME280;48759;52.544;13.418;2022-10-16T10:00:24;100951.63;;;18.67;100.00
62694;BME280;48759;52.544;13.418;2022-10-16T10:02:52;100948.09;;;18.72;100.00
62694;BME280;48759;52.544;13.418;2022-10-16T10:05:21;100949.25;;;18.76;100.00
62694;BME280;48759;52.544;13.418;2022-10-16T10:07:54;100938.97;;;19.37;100.00
62694;BME280;48759;52.544;13.418;2022-10-16T10:10:23;100953.47;;;19.34;100.00
62694;BME280;48759;52.544;13.418;2022-10-16T10:12:51;100961.72;;;19.07;100.00
62694;BME280;48759;52.544;13.418;2022-10-16T10:15:18;100965.22;;;18.97;100.00
62694;BME280;48759;52.544;13.418;2022-10-16T10:17:48;100958.66;;;19.08;100.00
62694;BME280;48759;52.544;13.418;2022-10-16T10:20:23;100952.47;;;18.85;100.00
62694;BME280;48759;52.544;13.418;2022-10-16T10:22:50;100967.84;;;18.87;100.00
62694;BME280;48759;52.544;13.418;2022-10-16T10:25:37;100976.66;;;18.79;100.00
62694;BME280;48759;52.544;13.418;2022-10-16T10:31:14;100969.81;;;18.70;100.00
62694;BME280;48759;52.544;13.418;2022-10-16T10:33:47;100975.75;;;18.57;100.00
62694;BME280;48759;52.544;13.418;2022-10-16T10:36:24;100982.41;;;18.56;100.00
62694;BME280;48759;52.544;13.418;2022-10-16T10:38:57;100995.69;;;18.20;100.00
62694;BME280;48759;52.544;13.418;2022-10-16T10:41:44;100987.97;;;18.56;100.00
62694;BME280;48759;52.544;13.418;2022-10-16T10:44:27;101001.72;;;19.13;100.00
62694;BME280;48759;52.544;13.418;2022-10-16T10:47:07;100995.34;;;19.34;100.00
62694;BME280;48759;52.544;13.418;2022-10-16T10:49:46;100998.06;;;19.72;100.00
62694;BME280;48759;52.544;13.418;2022-10-16T10:52:43;100986.47;;;19.85;100.00
62694;BME280;48759;52.544;13.418;2022-10-16T10:55:21;100986.78;;;20.11;100.00
62694;BME280;48759;52.544;13.418;2022-10-16T10:58:05;100991.06;;;19.92;100.00
62694;BME280;48759;52.544;13.418;2022-10-16T11:00:42;100994.94;;;20.44;100.00
62694;BME280;48759;52.544;13.418;2022-10-16T11:03:21;100989.59;;;20.70;100.00
62694;BME280;48759;52.544;13.418;2022-10-16T11:05:57;100994.91;;;20.71;100.00
62694;BME280;48759;52.544;13.418;2022-10-16T11:08:31;100991.72;;;20.94;100.00
62694;BME280;48759;52.544;13.418;2022-10-16T11:11:01;100993.25;;;20.43;100.00
62694;BME280;48759;52.544;13.418;2022-10-16T11:13:32;100989.88;;;20.41;100.00
62694;BME280;48759;52.544;13.418;2022-10-16T11:16:06;100994.31;;;20.10;100.00
62694;BME280;48759;52.544;13.418;2022-10-16T11:18:43;101000.41;;;20.29;100.00
62694;BME280;48759;52.544;13.418;2022-10-16T11:21:14;100992.53;;;19.99;100.00
62694;BME280;48759;52.544;13.418;2022-10-16T11:23:49;100987.25;;;20.03;100.00
62694;BME280;48759;52.544;13.418;2022-10-16T11:26:20;100988.16;;;19.86;100.00
62694;BME280;48759;52.544;13.418;2022-10-16T11:28:49;100987.19;;;20.24;100.00
62694;BME280;48759;52.544;13.418;2022-10-16T11:31:19;100990.06;;;20.03;100.00
62694;BME280;48759;52.544;13.418;2022-10-16T11:33:55;100984.59;;;19.69;100.00
62694;BME280;48759;52.544;13.418;2022-10-16T11:36:29;100983.19;;;19.67;100.00
62694;BME280;48759;52.544;13.418;2022-10-16T11:39:03;100988.13;;;19.38;100.00
62694;BME280;48759;52.544;13.418;2022-10-16T11:41:37;100982.19;;;19.13;100.00
62694;BME280;48759;52.544;13.418;2022-10-16T11:44:18;100981.88;;;19.53;100.00
62694;BME280;48759;52.544;13.418;2022-10-16T11:46:52;100989.75;;;19.34;100.00
62694;BME280;48759;52.544;13.418;2022-10-16T11:49:27;100987.22;;;19.32;100.00
62694;BME280;48759;52.544;13.418;2022-10-16T11:52:02;100994.63;;;19.65;100.00
62694;BME280;48759;52.544;13.418;2022-10-16T11:54:38;100996.66;;;19.92;98.32
62694;BME280;48759;52.544;13.418;2022-10-16T11:57:12;101001.31;;;18.87;100.00
62694;BME280;48759;52.544;13.418;2022-10-16T11:59:44;100997.13;;;19.45;100.00
62694;BME280;48759;52.544;13.418;2022-10-16T12:02:38;101005.28;;;18.91;100.00
62694;BME280;48759;52.544;13.418;2022-10-16T12:05:15;101005.88;;;18.77;100.00
62694;BME280;48759;52.544;13.418;2022-10-16T12:07:50;101005.88;;;18.60;100.00
62694;BME280;48759;52.544;13.418;2022-10-16T12:10:25;101007.72;;;19.04;100.00
62694;BME280;48759;52.544;13.418;2022-10-16T12:12:52;101021.94;;;18.86;100.00
62694;BME280;48759;52.544;13.418;2022-10-16T12:15:21;101019.00;;;19.15;97.70
62694;BME280;48759;52.544;13.418;2022-10-16T12:17:49;101025.38;;;19.27;94.90
62694;BME280;48759;52.544;13.418;2022-10-16T12:20:25;101027.31;;;19.26;92.39
62694;BME280;48759;52.544;13.418;2022-10-16T12:22:54;101027.97;;;19.17;87.71
62694;BME280;48759;52.544;13.418;2022-10-16T12:25:26;101030.94;;;19.65;84.71
62694;BME280;48759;52.544;13.418;2022-10-16T12:27:55;101033.66;;;19.60;83.47
62694;BME280;48759;52.544;13.418;2022-10-16T12:30:24;101030.88;;;19.22;84.29
62694;BME280;48759;52.544;13.418;2022-10-16T12:32:56;101035.09;;;19.24;83.92
62694;BME280;48759;52.544;13.418;2022-10-16T12:35:25;101031.22;;;19.25;83.35
62694;BME280;48759;52.544;13.418;2022-10-16T12:37:53;101036.44;;;19.22;81.52
62694;BME280;48759;52.544;13.418;2022-10-16T12:40:27;101038.31;;;19.33;81.62
62694;BME280;48759;52.544;13.418;2022-10-16T12:42:55;101044.31;;;19.25;80.33
62694;BME280;48759;52.544;13.418;2022-10-16T12:45:29;101046.13;;;19.74;76.35
62694;BME280;48759;52.544;13.418;2022-10-16T12:47:58;101037.94;;;19.90;76.05
62694;BME280;48759;52.544;13.418;2022-10-16T12:50:32;101038.91;;;19.57;76.95
62694;BME280;48759;52.544;13.418;2022-10-16T12:53:00;101044.75;;;19.77;77.63